Time;durP1;ratioP1;P1;durP2;ratioP2;P2;SDS_P1;SDS_P2;PMS_P1;PMS_P2;Temp;Humidity;BMP_temperature;BMP_pressure;BME280_temperature;BME280_humidity;BME280_pressure;Samples;Min_cycle;Max_cycle;Signal;HPM_P1;HPM_P2
2022/08/05 00:01:15;;;;;;;0.30;0.30;;;;;;;15.23;100.00;100266.13;5104130;28;20016;-68
2022/08/05 00:03:41;;;;;;;0.30;0.30;;;;;;;15.20;100.00;100267.06;5104338;28;20030;-68
2022/08/05 00:06:08;;;;;;;0.20;0.20;;;;;;;15.21;100.00;100267.91;5104116;28;20040;-68
2022/08/05 00:08:34;;;;;;;0.20;0.20;;;;;;;15.17;100.00;100268.91;5104159;28;20360;-68
2022/08/05 00:11:01;;;;;;;0.25;0.25;;;;;;;15.14;100.00;100263.78;5103802;28;20028;-68
2022/08/05 00:13:31;;;;;;;0.30;0.30;;;;;;;15.10;100.00;100266.47;5104102;28;20016;-68
2022/08/05 00:15:56;;;;;;;0.20;0.20;;;;;;;14.98;100.00;100249.38;5104026;28;20020;-68
2022/08/05 00:18:21;;;;;;;0.20;0.20;;;;;;;14.98;100.00;100259.00;5103687;28;20056;-68
2022/08/05 00:20:47;;;;;;;0.30;0.30;;;;;;;14.97;100.00;100272.97;5103646;28;20055;-68
2022/08/05 00:23:12;;;;;;;0.20;0.20;;;;;;;14.92;100.00;100272.25;5103787;28;20408;-68
2022/08/05 00:25:37;;;;;;;0.30;0.30;;;;;;;14.90;100.00;100271.44;5104114;28;20048;-68
2022/08/05 00:28:03;;;;;;;0.20;0.20;;;;;;;14.84;100.00;100251.56;5103960;28;20028;-68
2022/08/05 00:30:28;;;;;;;0.20;0.20;;;;;;;14.86;100.00;100254.97;5103707;28;20031;-67
2022/08/05 00:32:53;;;;;;;0.30;0.30;;;;;;;14.82;100.00;100251.63;5103616;28;20024;-68
2022/08/05 00:35:19;;;;;;;0.20;0.20;;;;;;;14.73;100.00;100246.59;5103811;28;20077;-68
2022/08/05 00:37:44;;;;;;;0.30;0.30;;;;;;;14.74;100.00;100258.78;5103649;28;20427;-68
2022/08/05 00:40:10;;;;;;;0.20;0.20;;;;;;;14.71;100.00;100264.09;5103741;28;20028;-70
2022/08/05 00:42:38;;;;;;;0.20;0.20;;;;;;;14.65;100.00;100262.50;5103391;28;20092;-69
2022/08/05 00:45:05;;;;;;;0.30;0.30;;;;;;;14.69;100.00;100265.88;5103818;28;20028;-71
2022/08/05 00:47:31;;;;;;;0.20;0.20;;;;;;;14.71;100.00;100264.09;5103319;28;20526;-70
2022/08/05 00:49:56;;;;;;;0.20;0.20;;;;;;;14.69;100.00;100258.91;5103576;28;20043;-67
2022/08/05 00:52:21;;;;;;;0.30;0.30;;;;;;;14.68;100.00;100251.97;5103381;28;20043;-70
2022/08/05 00:54:48;;;;;;;0.20;0.20;;;;;;;14.67;100.00;100249.38;5103512;28;20061;-69
2022/08/05 00:57:13;;;;;;;0.30;0.30;;;;;;;14.63;100.00;100261.69;5103409;28;20024;-69
2022/08/05 00:59:38;;;;;;;0.20;0.20;;;;;;;14.62;100.00;100260.84;5103617;28;20108;-68
2022/08/05 01:02:04;;;;;;;0.20;0.20;;;;;;;14.60;100.00;100257.41;5103236;28;20078;-68
2022/08/05 01:04:29;;;;;;;0.20;0.20;;;;;;;14.56;100.00;100253.16;5103422;28;20039;-68
2022/08/05 01:06:54;;;;;;;0.20;0.20;;;;;;;14.53;100.00;100261.09;5103084;28;20056;-70
2022/08/05 01:09:20;;;;;;;0.20;0.20;;;;;;;14.49;100.00;100249.84;5103543;28;20031;-69
2022/08/05 01:11:49;;;;;;;0.28;0.28;;;;;;;14.46;100.00;100257.78;5103359;28;20017;-68
2022/08/05 01:14:35;;;;;;;0.20;0.20;;;;;;;14.42;100.00;100268.34;5103468;28;20024;-68
2022/08/05 01:17:27;;;;;;;0.20;0.20;;;;;;;14.40;100.00;100268.41;5102913;28;20044;-69
2022/08/05 01:20:09;;;;;;;0.38;0.38;;;;;;;14.37;100.00;100273.69;5089654;28;20066;-69
2022/08/05 01:22:56;;;;;;;0.30;0.30;;;;;;;14.37;100.00;100268.47;5103329;28;20533;-68
2022/08/05 01:25:58;;;;;;;0.30;0.30;;;;;;;14.33;100.00;100270.31;5103932;28;20430;-69
2022/08/05 01:28:30;;;;;;;0.40;0.40;;;;;;;14.32;100.00;100271.22;5103442;28;20101;-68
2022/08/05 01:31:03;;;;;;;0.30;0.30;;;;;;;14.29;100.00;100268.69;5103109;28;20105;-68
2022/08/05 01:33:38;;;;;;;0.30;0.30;;;;;;;14.28;100.00;100277.41;5103390;28;20028;-68
2022/08/05 01:36:09;;;;;;;0.30;0.30;;;;;;;14.27;100.00;100275.69;5103331;28;20028;-68
2022/08/05 01:38:36;;;;;;;0.30;0.30;;;;;;;14.29;100.00;100278.25;5103830;28;20032;-68
2022/08/05 01:41:03;;;;;;;0.30;0.30;;;;;;;14.29;100.00;100286.09;5104678;28;20035;-68
2022/08/05 01:43:31;;;;;;;0.30;0.30;;;;;;;14.28;100.00;100277.41;5107114;28;20020;-69
2022/08/05 01:45:57;;;;;;;0.30;0.30;;;;;;;14.29;100.00;100279.13;5106783;28;20020;-68
2022/08/05 01:48:25;;;;;;;0.20;0.20;;;;;;;14.29;100.00;100278.25;5106976;28;20317;-68
2022/08/05 01:50:52;;;;;;;0.30;0.30;;;;;;;14.30;100.00;100275.59;5106859;28;20043;-68
2022/08/05 01:53:21;;;;;;;0.30;0.30;;;;;;;14.29;100.00;100273.91;5106887;28;20027;-69
2022/08/05 01:55:49;;;;;;;0.30;0.30;;;;;;;14.30;100.00;100265.16;5106829;28;20016;-68
2022/08/05 01:58:16;;;;;;;0.20;0.20;;;;;;;14.31;100.00;100266.91;5106590;28;20055;-68
2022/08/05 02:00:46;;;;;;;0.30;0.30;;;;;;;14.33;100.00;100256.41;5106101;28;20431;-67
2022/08/05 02:03:31;;;;;;;0.22;0.22;;;;;;;14.33;100.00;100254.63;5106717;28;20251;-67
2022/08/05 02:05:57;;;;;;;0.28;0.28;;;;;;;14.29;100.00;100241.72;5106652;28;20087;-68
2022/08/05 02:08:23;;;;;;;0.20;0.20;;;;;;;14.30;100.00;100253.84;5106450;28;20062;-68
2022/08/05 02:10:52;;;;;;;0.20;0.20;;;;;;;14.30;100.00;100256.47;5088293;28;20052;-68
2022/08/05 02:13:26;;;;;;;0.28;0.28;;;;;;;14.32;100.00;100259.91;5106391;28;20028;-68
2022/08/05 02:16:04;;;;;;;0.30;0.30;;;;;;;14.34;100.00;100255.50;5106132;28;20454;-67
2022/08/05 02:18:43;;;;;;;0.30;0.30;;;;;;;14.38;100.00;100255.38;5106322;28;20548;-68
2022/08/05 02:21:27;;;;;;;0.30;0.30;;;;;;;14.40;100.00;100252.72;5106518;28;20126;-68
2022/08/05 02:23:58;;;;;;;0.30;0.30;;;;;;;14.45;100.00;100250.00;5106361;28;20039;-67
2022/08/05 02:26:29;;;;;;;0.30;0.30;;;;;;;14.47;100.00;100250.81;5106241;28;20116;-67
2022/08/05 02:28:55;;;;;;;0.30;0.30;;;;;;;14.37;100.00;100234.53;5106105;28;20464;-68
2022/08/05 02:31:27;;;;;;;0.30;0.30;;;;;;;14.48;100.00;100257.75;5105827;28;20042;-69
2022/08/05 02:34:05;;;;;;;0.25;0.25;;;;;;;14.47;100.00;100256.88;5105835;28;20084;-68
2022/08/05 02:36:33;;;;;;;0.30;0.30;;;;;;;14.52;100.00;100259.34;5105966;28;20032;-68
2022/08/05 02:39:01;;;;;;;0.20;0.20;;;;;;;14.53;100.00;100253.25;5105660;28;20040;-68
2022/08/05 02:41:29;;;;;;;0.20;0.20;;;;;;;14.50;100.00;100251.56;5105754;28;20028;-68
2022/08/05 02:43:56;;;;;;;0.30;0.30;;;;;;;14.56;100.00;100250.56;5105993;28;20061;-68
2022/08/05 02:46:22;;;;;;;0.30;0.30;;;;;;;14.56;100.00;100250.56;5105625;28;20323;-67
2022/08/05 02:48:49;;;;;;;0.30;0.30;;;;;;;14.58;100.00;100247.91;5105921;28;20083;-68
2022/08/05 02:51:17;;;;;;;0.20;0.20;;;;;;;14.59;100.00;100252.22;5105486;28;20454;-68
2022/08/05 02:53:43;;;;;;;0.20;0.20;;;;;;;14.59;100.00;100247.84;5104725;28;20043;-68
2022/08/05 02:56:10;;;;;;;0.30;0.30;;;;;;;14.59;100.00;100245.25;5105465;28;20076;-68
2022/08/05 02:58:39;;;;;;;0.30;0.30;;;;;;;14.62;100.00;100241.69;5105525;28;20039;-68
2022/08/05 03:01:06;;;;;;;0.20;0.20;;;;;;;14.61;100.00;100253.03;5105197;28;20024;-68
2022/08/05 03:03:32;;;;;;;0.20;0.20;;;;;;;14.60;100.00;100257.41;5105402;28;20030;-68
2022/08/05 03:05:59;;;;;;;0.30;0.30;;;;;;;14.59;100.00;100250.47;5105598;28;20103;-68
2022/08/05 03:08:24;;;;;;;0.20;0.20;;;;;;;14.65;100.00;100253.81;5105307;28;20186;-68
2022/08/05 03:10:50;;;;;;;0.20;0.20;;;;;;;14.65;100.00;100264.28;5086983;28;20087;-68
2022/08/05 03:13:16;;;;;;;0.30;0.30;;;;;;;14.64;100.00;100263.41;5105229;28;20468;-68
2022/08/05 03:15:43;;;;;;;0.30;0.30;;;;;;;14.61;100.00;100264.34;5105120;28;20105;-68
2022/08/05 03:18:09;;;;;;;0.22;0.22;;;;;;;14.55;100.00;100261.91;5104997;28;20451;-69
2022/08/05 03:20:34;;;;;;;0.20;0.20;;;;;;;14.48;100.00;100257.75;5104869;28;20043;-68
2022/08/05 03:23:00;;;;;;;0.20;0.20;;;;;;;14.45;100.00;100245.63;5104925;28;20028;-68
2022/08/05 03:25:26;;;;;;;0.30;0.30;;;;;;;14.38;100.00;100242.31;5105052;28;20056;-68
2022/08/05 03:27:54;;;;;;;0.30;0.30;;;;;;;14.36;100.00;100238.06;5104911;28;20086;-68
2022/08/05 03:30:21;;;;;;;0.20;0.20;;;;;;;14.37;100.00;100240.63;5104795;28;20020;-69
2022/08/05 03:32:47;;;;;;;0.30;0.30;;;;;;;14.41;100.00;100240.53;5104658;28;20031;-68
2022/08/05 03:35:12;;;;;;;0.30;0.30;;;;;;;14.45;100.00;100255.22;5104849;28;20103;-69
2022/08/05 03:37:39;;;;;;;0.30;0.30;;;;;;;14.48;100.00;100258.59;5104778;28;20028;-69
2022/08/05 03:40:07;;;;;;;0.30;0.30;;;;;;;14.51;100.00;100257.66;5104801;28;20328;-69
2022/08/05 03:42:33;;;;;;;0.20;0.20;;;;;;;14.54;100.00;100251.47;5104646;28;20081;-70
2022/08/05 03:44:59;;;;;;;0.25;0.25;;;;;;;14.50;100.00;100242.88;5104814;28;20103;-68
2022/08/05 03:47:24;;;;;;;0.20;0.20;;;;;;;14.59;100.00;100247.84;5104487;28;20028;-68
2022/08/05 03:49:50;;;;;;;0.20;0.20;;;;;;;14.63;100.00;100257.31;5104584;28;20087;-68
2022/08/05 03:52:26;;;;;;;0.20;0.20;;;;;;;14.63;100.00;100243.41;5104434;28;20042;-68
2022/08/05 03:54:56;;;;;;;0.30;0.30;;;;;;;14.66;100.00;100250.28;5104504;28;20016;-68
2022/08/05 03:57:25;;;;;;;0.20;0.20;;;;;;;14.67;100.00;100257.22;5104222;28;20083;-68
2022/08/05 04:00:05;;;;;;;0.30;0.30;;;;;;;14.70;100.00;100270.19;5104396;28;20027;-68
2022/08/05 04:02:33;;;;;;;0.20;0.20;;;;;;;14.68;100.00;100264.19;5103989;28;20035;-68
2022/08/05 04:05:01;;;;;;;0.20;0.20;;;;;;;14.65;100.00;100259.03;5104352;28;20020;-68
2022/08/05 04:07:27;;;;;;;0.20;0.20;;;;;;;14.69;100.00;100265.88;5104111;28;20020;-68
2022/08/05 04:09:54;;;;;;;0.30;0.30;;;;;;;14.73;100.00;100263.16;5104168;28;20043;-68
2022/08/05 04:12:20;;;;;;;0.25;0.25;;;;;;;14.78;100.00;100257.78;5103991;28;20535;-67
2022/08/05 04:14:46;;;;;;;0.20;0.20;;;;;;;14.82;100.00;100261.22;5104109;28;20070;-67
2022/08/05 04:17:12;;;;;;;0.30;0.30;;;;;;;14.87;100.00;100265.38;5103776;28;20044;-67
2022/08/05 04:19:41;;;;;;;0.30;0.30;;;;;;;14.92;100.00;100274.88;5104162;28;20028;-67
2022/08/05 04:22:06;;;;;;;0.30;0.30;;;;;;;14.94;100.00;100276.53;5103904;28;20032;-67
2022/08/05 04:24:32;;;;;;;0.20;0.20;;;;;;;15.02;100.00;100272.81;5104125;28;20030;-67
2022/08/05 04:26:57;;;;;;;0.25;0.25;;;;;;;15.08;100.00;100270.91;5103858;28;20028;-67
2022/08/05 04:29:23;;;;;;;0.20;0.20;;;;;;;15.17;100.00;100271.53;5103863;28;20027;-67
2022/08/05 04:31:48;;;;;;;0.28;0.28;;;;;;;15.30;100.00;100272.88;5103672;28;20032;-67
2022/08/05 04:34:13;;;;;;;0.30;0.30;;;;;;;15.69;100.00;100270.81;5103646;28;20027;-67
2022/08/05 04:36:38;;;;;;;0.20;0.20;;;;;;;16.24;100.00;100259.44;5103670;28;20111;-67
2022/08/05 04:39:04;;;;;;;0.20;0.20;;;;;;;16.46;100.00;100258.69;5103627;28;20047;-68
2022/08/05 04:41:30;;;;;;;0.20;0.20;;;;;;;16.52;100.00;100262.88;5103397;28;20031;-67
2022/08/05 04:43:56;;;;;;;0.20;0.20;;;;;;;16.45;100.00;100257.00;5103633;28;20138;-68
2022/08/05 04:46:21;;;;;;;0.20;0.20;;;;;;;16.52;100.00;100266.31;5103544;28;20073;-67
2022/08/05 04:48:46;;;;;;;0.30;0.30;;;;;;;16.63;100.00;100262.47;5103421;28;20028;-68
2022/08/05 04:51:12;;;;;;;0.20;0.20;;;;;;;16.73;100.00;100264.72;5103374;28;20073;-69
2022/08/05 04:53:38;;;;;;;0.20;0.20;;;;;;;17.08;100.00;100271.34;5103490;28;20388;-68
2022/08/05 04:56:04;;;;;;;0.20;0.20;;;;;;;17.66;100.00;100256.00;5103793;28;20103;-68
2022/08/05 04:58:29;;;;;;;0.20;0.20;;;;;;;18.63;100.00;100257.22;5103413;28;20055;-68
2022/08/05 05:00:54;;;;;;;0.20;0.20;;;;;;;19.32;100.00;100271.63;5103109;28;20420;-67
2022/08/05 05:03:20;;;;;;;0.20;0.20;;;;;;;19.46;100.00;100277.19;5085161;28;20031;-67
2022/08/05 05:05:45;;;;;;;0.20;0.20;;;;;;;19.35;100.00;100269.75;5103409;28;20107;-67
2022/08/05 05:08:10;;;;;;;0.20;0.20;;;;;;;19.22;100.00;100265.09;5103362;28;20024;-68
2022/08/05 05:10:41;;;;;;;0.20;0.20;;;;;;;19.46;100.00;100270.09;5103339;28;20020;-68
2022/08/05 05:13:12;;;;;;;0.20;0.20;;;;;;;19.54;100.00;100267.97;5103473;28;20027;-69
2022/08/05 05:15:38;;;;;;;0.20;0.20;;;;;;;19.37;100.00;100278.44;5104400;28;20252;-68
2022/08/05 05:18:03;;;;;;;0.20;0.20;;;;;;;19.04;100.00;100283.41;5107113;28;20044;-68
2022/08/05 05:20:29;;;;;;;0.20;0.20;;;;;;;18.76;100.00;100289.06;5107227;28;20039;-69
2022/08/05 05:22:56;;;;;;;0.20;0.20;;;;;;;18.50;100.00;100297.19;5107334;28;20024;-67
2022/08/05 05:25:21;;;;;;;0.20;0.20;;;;;;;18.24;100.00;100288.69;5107608;28;20031;-69
2022/08/05 05:27:47;;;;;;;0.20;0.20;;;;;;;17.96;100.00;100290.66;5107192;28;20024;-67
2022/08/05 05:30:16;;;;;;;0.20;0.20;;;;;;;17.74;100.00;100285.41;5107390;28;20011;-68
2022/08/05 05:32:41;;;;;;;0.20;0.20;;;;;;;17.55;100.00;100265.16;5106992;28;20052;-68
2022/08/05 05:35:07;;;;;;;0.20;0.20;;;;;;;17.40;100.00;100250.00;5107101;28;20104;-68
2022/08/05 05:37:32;;;;;;;0.20;0.20;;;;;;;17.28;100.00;100235.63;5107427;28;20023;-67
2022/08/05 05:39:57;;;;;;;0.20;0.20;;;;;;;17.19;100.00;100253.41;5106965;28;20197;-68
2022/08/05 05:42:23;;;;;;;0.20;0.20;;;;;;;17.04;100.00;100254.00;5088498;28;20020;-68
2022/08/05 05:44:48;;;;;;;0.20;0.20;;;;;;;16.94;100.00;100261.34;5107115;28;20031;-69
2022/08/05 05:47:14;;;;;;;0.20;0.20;;;;;;;16.90;100.00;100272.88;5106856;28;20024;-68
2022/08/05 05:49:39;;;;;;;0.20;0.20;;;;;;;16.80;100.00;100267.09;5107080;28;20084;-68
2022/08/05 05:52:04;;;;;;;0.20;0.20;;;;;;;16.73;100.00;100261.22;5106763;28;20027;-68
2022/08/05 05:54:31;;;;;;;0.20;0.20;;;;;;;16.64;100.00;100261.56;5106858;28;20032;-68
2022/08/05 05:56:56;;;;;;;0.20;0.20;;;;;;;16.57;100.00;100269.66;5107100;28;20030;-68
2022/08/05 05:59:23;;;;;;;0.20;0.20;;;;;;;16.48;100.00;100247.22;5106765;28;20055;-68
2022/08/05 06:01:48;;;;;;;0.20;0.20;;;;;;;16.46;100.00;100266.56;5106435;28;20019;-68
2022/08/05 06:04:14;;;;;;;0.20;0.20;;;;;;;16.41;100.00;100276.31;5106589;28;20046;-68
2022/08/05 06:06:43;;;;;;;0.20;0.20;;;;;;;16.34;100.00;100270.47;5088294;28;20049;-69
2022/08/05 06:09:10;;;;;;;0.20;0.20;;;;;;;16.27;100.00;100267.19;5105715;28;20012;-68
2022/08/05 06:11:35;;;;;;;0.20;0.20;;;;;;;16.25;100.00;100248.06;5104986;28;20081;-68
2022/08/05 06:14:00;;;;;;;0.20;0.20;;;;;;;16.21;100.00;100251.69;5103391;28;20024;-67
2022/08/05 06:16:26;;;;;;;0.20;0.20;;;;;;;16.25;100.00;100255.03;5102264;28;20373;-67
2022/08/05 06:18:52;;;;;;;0.22;0.22;;;;;;;16.28;100.00;100255.81;5103846;28;20012;-67
2022/08/05 06:21:17;;;;;;;0.20;0.20;;;;;;;16.29;100.00;100260.16;5106297;28;20031;-67
2022/08/05 06:23:43;;;;;;;0.20;0.20;;;;;;;16.35;100.00;100264.31;5087932;28;20020;-68
2022/08/05 06:26:08;;;;;;;0.20;0.20;;;;;;;16.34;100.00;100265.22;5106127;28;20024;-67
2022/08/05 06:28:42;;;;;;;0.20;0.20;;;;;;;16.30;100.00;100266.22;5106146;28;20040;-67
2022/08/05 06:31:07;;;;;;;0.20;0.20;;;;;;;16.32;100.00;100275.75;5106002;28;20023;-68
2022/08/05 06:33:33;;;;;;;0.20;0.20;;;;;;;16.30;100.00;100264.47;5106010;28;20019;-67
2022/08/05 06:35:58;;;;;;;0.20;0.20;;;;;;;16.34;100.00;100260.81;5106192;28;20028;-67
2022/08/05 06:38:23;;;;;;;0.25;0.25;;;;;;;16.35;100.00;100259.94;5106149;28;20042;-67
2022/08/05 06:40:48;;;;;;;0.20;0.20;;;;;;;16.39;100.00;100271.13;5105975;28;20028;-67
2022/08/05 06:43:14;;;;;;;0.20;0.20;;;;;;;16.43;100.00;100254.44;5106004;28;20039;-67
2022/08/05 06:45:39;;;;;;;0.20;0.20;;;;;;;16.50;100.00;100243.72;5105921;28;20031;-67
2022/08/05 06:48:04;;;;;;;0.20;0.20;;;;;;;16.58;100.00;100268.72;5105695;28;20028;-66
2022/08/05 06:50:30;;;;;;;0.20;0.20;;;;;;;16.71;100.00;100282.25;5105723;28;20104;-67
2022/08/05 06:52:56;;;;;;;0.30;0.30;;;;;;;16.79;100.00;100281.97;5105693;28;20107;-66
2022/08/05 06:55:21;;;;;;;0.20;0.20;;;;;;;16.85;100.00;100275.66;5105625;28;20079;-66
2022/08/05 06:57:46;;;;;;;0.20;0.20;;;;;;;16.90;100.00;100283.34;5105813;28;20024;-66
2022/08/05 07:00:12;;;;;;;0.20;0.20;;;;;;;16.96;100.00;100288.38;5105399;28;20043;-66
2022/08/05 07:02:46;;;;;;;0.20;0.20;;;;;;;17.07;100.00;100290.59;5105465;28;20032;-66
2022/08/05 07:05:12;;;;;;;0.20;0.20;;;;;;;17.26;100.00;100293.41;5105256;28;20028;-66
2022/08/05 07:07:38;;;;;;;0.20;0.20;;;;;;;17.51;100.00;100287.19;5105369;28;20031;-66
2022/08/05 07:10:05;;;;;;;0.20;0.20;;;;;;;17.81;100.00;100286.03;5105582;28;20038;-66
2022/08/05 07:18:02;;;;;;;0.20;0.20;;;;;;;18.94;100.00;100266.34;5104911;28;20058;-67
2022/08/05 07:20:27;;;;;;;0.20;0.20;;;;;;;19.65;100.00;100272.72;5104897;28;20024;-67
2022/08/05 07:22:53;;;;;;;0.20;0.20;;;;;;;20.33;100.00;100264.16;5105001;28;20020;-67
2022/08/05 07:25:18;;;;;;;0.20;0.20;;;;;;;21.11;100.00;100270.63;5104983;28;20036;-67
2022/08/05 07:27:43;;;;;;;0.20;0.20;;;;;;;21.84;100.00;100269.19;5104901;28;20067;-67
2022/08/05 07:30:09;;;;;;;0.10;0.10;;;;;;;22.83;100.00;100269.53;5104975;28;20087;-67
2022/08/05 07:32:36;;;;;;;0.10;0.10;;;;;;;23.59;100.00;100271.84;5104783;28;20028;-65
2022/08/05 07:35:07;;;;;;;0.45;0.45;;;;;;;23.61;100.00;100269.09;5104926;28;20028;-64
2022/08/05 07:37:32;;;;;;;0.10;0.10;;;;;;;23.40;100.00;100275.69;5104926;28;20016;-63
2022/08/05 07:39:58;;;;;;;0.10;0.10;;;;;;;23.07;94.08;100281.34;5104062;28;20086;-62
2022/08/05 07:42:23;;;;;;;0.20;0.20;;;;;;;22.52;86.74;100284.63;5104576;28;20050;-65
2022/08/05 07:44:48;;;;;;;0.10;0.10;;;;;;;22.73;89.03;100287.78;5104790;28;20093;-67
2022/08/05 07:47:14;;;;;;;0.15;0.15;;;;;;;23.60;85.80;100286.78;5104387;28;20531;-68
2022/08/05 07:49:39;;;;;;;0.20;0.20;;;;;;;24.54;90.53;100285.06;5104694;28;20020;-66
2022/08/05 07:52:05;;;;;;;0.10;0.10;;;;;;;24.61;80.49;100289.81;5104389;28;20016;-65
2022/08/05 07:54:30;;;;;;;0.10;0.10;;;;;;;24.47;79.45;100285.44;5104406;28;20043;-74
2022/08/05 07:56:56;;;;;;;0.10;0.10;;;;;;;24.14;77.43;100281.47;5104282;28;20076;-77
2022/08/05 07:59:21;;;;;;;0.10;0.10;;;;;;;24.00;80.84;100283.28;5104223;28;20024;-75
2022/08/05 08:01:46;;;;;;;0.20;0.20;;;;;;;23.86;78.03;100280.72;5103995;28;20035;-70
2022/08/05 08:04:12;;;;;;;0.10;0.10;;;;;;;23.54;72.30;100278.38;5104339;28;20460;-64
2022/08/05 08:06:38;;;;;;;0.10;0.10;;;;;;;23.55;79.77;100280.09;5104394;28;20047;-70
2022/08/05 08:09:03;;;;;;;0.10;0.10;;;;;;;23.42;79.05;100290.66;5104418;28;20081;-70
2022/08/05 08:11:28;;;;;;;0.10;0.10;;;;;;;23.29;75.82;100296.72;5104168;28;20020;-64
2022/08/05 08:13:54;;;;;;;0.35;0.35;;;;;;;23.18;75.58;100299.19;5103965;28;20034;-63
2022/08/05 08:16:19;;;;;;;0.80;0.80;;;;;;;22.67;69.34;100304.03;5103950;28;20035;-64
2022/08/05 08:18:44;;;;;;;0.80;0.80;;;;;;;22.64;70.84;100302.44;5103995;28;20202;-65
2022/08/05 08:21:10;;;;;;;0.10;0.10;;;;;;;22.41;67.07;100301.16;5085732;28;20031;-65
2022/08/05 08:23:36;;;;;;;0.10;0.10;;;;;;;22.24;65.90;100297.72;5104058;28;20031;-65
2022/08/05 08:26:01;;;;;;;0.10;0.10;;;;;;;22.08;68.83;100305.72;5103953;28;20049;-65
2022/08/05 08:28:27;;;;;;;0.10;0.10;;;;;;;22.17;69.15;100284.00;5104040;28;20031;-64
2022/08/05 08:30:53;;;;;;;0.10;0.10;;;;;;;22.04;64.47;100278.59;5103729;28;20075;-64
2022/08/05 08:33:18;;;;;;;0.10;0.10;;;;;;;21.77;65.69;100281.91;5103563;28;20027;-65
2022/08/05 08:35:44;;;;;;;0.38;0.35;;;;;;;21.53;65.53;100274.41;5103876;28;20058;-64
2022/08/05 08:38:09;;;;;;;0.20;0.20;;;;;;;21.14;62.73;100278.38;5103929;28;20035;-64
2022/08/05 08:40:36;;;;;;;0.13;0.13;;;;;;;20.74;64.84;100276.94;5103631;28;20028;-64
2022/08/05 08:43:03;;;;;;;0.20;0.20;;;;;;;20.74;67.16;100284.00;5103323;28;20035;-67
2022/08/05 08:45:29;;;;;;;0.10;0.10;;;;;;;21.14;69.99;100294.22;5103713;28;20046;-66
2022/08/05 08:47:56;;;;;;;0.40;0.40;;;;;;;21.56;71.51;100299.81;5103594;28;20028;-63
2022/08/05 08:50:22;;;;;;;0.10;0.10;;;;;;;21.74;72.03;100291.78;5102862;28;20023;-63
2022/08/05 08:52:52;;;;;;;0.10;0.10;;;;;;;21.74;69.58;100303.19;5103531;28;20038;-61
2022/08/05 08:55:18;;;;;;;0.10;0.10;;;;;;;22.09;69.53;100298.63;5103509;28;20028;-61
2022/08/05 08:57:46;;;;;;;0.10;0.10;;;;;;;22.15;67.06;100291.19;5103498;28;20050;-61
2022/08/05 09:00:11;;;;;;;0.10;0.10;;;;;;;22.02;69.59;100288.44;5103498;28;20028;-64
2022/08/05 09:02:37;;;;;;;0.10;0.10;;;;;;;22.32;71.50;100288.50;5103307;28;20016;-65
2022/08/05 09:05:03;;;;;;;0.10;0.10;;;;;;;22.94;68.56;100292.66;5103313;28;20112;-66
2022/08/05 09:07:29;;;;;;;0.10;0.10;;;;;;;23.40;66.47;100298.69;5103495;28;20092;-66
2022/08/05 09:09:54;;;;;;;0.10;0.10;;;;;;;23.76;66.97;100283.97;5103474;28;20148;-69
2022/08/05 09:12:20;;;;;;;0.10;0.10;;;;;;;24.09;67.01;100300.38;5103744;28;20031;-66
2022/08/05 09:14:45;;;;;;;0.47;0.47;;;;;;;24.08;58.19;100296.03;5103370;28;20019;-64
2022/08/05 09:17:11;;;;;;;0.10;0.10;;;;;;;23.84;60.15;100295.84;5103091;28;20086;-67
2022/08/05 09:19:37;;;;;;;0.20;0.20;;;;;;;23.98;64.66;100293.13;5103410;28;20475;-64
2022/08/05 09:22:03;;;;;;;0.10;0.10;;;;;;;23.93;59.17;100300.53;5102936;28;20016;-62
2022/08/05 09:24:29;;;;;;;0.10;0.10;;;;;;;23.59;58.06;100300.13;5103168;28;20047;-65
2022/08/05 09:26:57;;;;;;;0.15;0.15;;;;;;;23.14;59.57;100298.53;5103275;28;20047;-62
2022/08/05 09:29:44;;;;;;;0.10;0.10;;;;;;;22.99;65.64;100292.38;5103091;28;20030;-65
2022/08/05 09:32:10;;;;;;;0.20;0.20;;;;;;;22.96;66.14;100296.09;5102901;28;20055;-65
2022/08/05 09:35:08;;;;;;;0.10;0.10;;;;;;;22.66;57.92;100289.09;5103174;28;20040;-64
2022/08/05 09:37:34;;;;;;;0.50;0.50;;;;;;;22.40;66.33;100297.66;5083746;28;20423;-64
2022/08/05 09:39:59;;;;;;;0.20;0.20;;;;;;;22.15;64.08;100301.78;5103031;28;20444;-64
2022/08/05 09:42:24;;;;;;;0.10;0.10;;;;;;;21.97;64.00;100305.47;5084826;28;20031;-64
2022/08/05 09:44:52;;;;;;;0.10;0.10;;;;;;;21.68;63.50;100295.63;5103055;28;20028;-64
2022/08/05 09:47:23;;;;;;;0.10;0.10;;;;;;;21.59;64.95;100293.50;5103086;28;20083;-64
2022/08/05 09:49:54;;;;;;;0.20;0.20;;;;;;;21.38;63.90;100297.28;5103005;28;20049;-65
2022/08/05 09:52:30;;;;;;;0.20;0.20;;;;;;;20.98;62.69;100297.69;5103081;28;20020;-64
2022/08/05 09:54:58;;;;;;;0.10;0.10;;;;;;;20.76;65.78;100300.59;5103090;28;20017;-64
2022/08/05 09:57:31;;;;;;;0.20;0.20;;;;;;;20.44;59.62;100301.34;5103149;28;20371;-64
2022/08/05 09:59:58;;;;;;;0.95;0.95;;;;;;;20.18;61.81;100306.16;5102887;28;20054;-64
2022/08/05 10:02:53;;;;;;;0.20;0.20;;;;;;;20.08;61.23;100318.13;5105064;28;20240;-64
2022/08/05 10:05:22;;;;;;;0.20;0.20;;;;;;;20.12;66.20;100311.75;5085086;28;20040;-64
2022/08/05 10:07:54;;;;;;;0.20;0.20;;;;;;;19.99;64.00;100314.97;5106689;28;20031;-65
2022/08/05 10:10:25;;;;;;;0.10;0.10;;;;;;;19.78;64.36;100317.72;5088428;28;20031;-64
2022/08/05 10:12:53;;;;;;;0.20;0.20;;;;;;;19.55;63.02;100310.97;5106660;28;20028;-64
2022/08/05 10:15:20;;;;;;;0.20;0.20;;;;;;;19.56;66.47;100305.63;5106539;28;20024;-64
2022/08/05 10:18:02;;;;;;;0.20;0.20;;;;;;;19.47;64.16;100297.28;5106128;28;20040;-64
2022/08/05 10:20:28;;;;;;;0.20;0.20;;;;;;;19.73;67.92;100306.56;5088447;28;20035;-64
2022/08/05 10:22:53;;;;;;;2.50;2.40;;;;;;;19.94;65.58;100302.03;5106356;28;20035;-70
2022/08/05 10:25:19;;;;;;;0.20;0.20;;;;;;;20.05;64.71;100292.75;5106054;28;20076;-67
2022/08/05 10:27:46;;;;;;;0.38;0.38;;;;;;;20.21;65.22;100295.47;5105983;28;20024;-64
2022/08/05 10:30:11;;;;;;;0.20;0.20;;;;;;;20.37;67.67;100279.72;5106331;28;20058;-66
2022/08/05 10:32:37;;;;;;;0.77;0.77;;;;;;;20.47;67.78;100281.88;5105928;28;20028;-65
2022/08/05 10:35:03;;;;;;;0.95;0.95;;;;;;;20.59;70.13;100290.94;5106079;28;20064;-66
2022/08/05 10:37:30;;;;;;;0.20;0.20;;;;;;;20.85;69.01;100283.41;5105993;28;20023;-62
2022/08/05 10:40:00;;;;;;;0.20;0.20;;;;;;;21.28;68.30;100281.09;5105878;28;20102;-63
2022/08/05 10:42:27;;;;;;;0.10;0.10;;;;;;;22.19;66.87;100291.84;5105786;28;20026;-63
2022/08/05 10:44:55;;;;;;;0.20;0.20;;;;;;;22.74;65.91;100288.63;5105821;28;20020;-63
2022/08/05 10:47:31;;;;;;;0.10;0.10;;;;;;;23.23;61.62;100295.28;5105825;28;20091;-63
2022/08/05 10:50:10;;;;;;;0.10;0.10;;;;;;;23.66;59.45;100300.59;5105738;28;20031;-63
2022/08/05 10:52:46;;;;;;;0.10;0.10;;;;;;;23.87;59.92;100295.66;5105740;28;20114;-63
2022/08/05 10:55:13;;;;;;;0.10;0.10;;;;;;;23.79;62.78;100295.34;5105716;28;20047;-63
2022/08/05 10:57:42;;;;;;;0.20;0.20;;;;;;;23.63;64.67;100289.22;5105693;28;20020;-63
2022/08/05 11:00:17;;;;;;;0.20;0.20;;;;;;;23.40;61.62;100290.75;5105546;28;20056;-63
2022/08/05 11:03:04;;;;;;;0.10;0.10;;;;;;;23.52;60.51;100292.59;5105553;28;20050;-62
2022/08/05 11:05:30;;;;;;;0.13;0.13;;;;;;;23.89;63.27;100289.31;5105631;28;20111;-62
2022/08/05 11:07:57;;;;;;;0.15;0.15;;;;;;;24.62;62.44;100285.34;5105573;28;20442;-62
2022/08/05 11:10:24;;;;;;;0.10;0.10;;;;;;;24.66;63.11;100289.50;5105451;28;20058;-62
2022/08/05 11:12:50;;;;;;;0.10;0.10;;;;;;;24.43;60.33;100299.03;5104634;28;20051;-62
2022/08/05 11:15:15;;;;;;;0.10;0.10;;;;;;;24.06;62.57;100286.47;5104970;28;20024;-64
2022/08/05 11:17:42;;;;;;;0.10;0.10;;;;;;;23.63;64.83;100283.06;5105084;28;20161;-63
2022/08/05 11:20:30;;;;;;;0.20;0.20;;;;;;;23.47;66.97;100296.47;5086705;28;20108;-62
2022/08/05 11:22:55;;;;;;;0.10;0.10;;;;;;;23.12;60.96;100288.03;5105135;28;20031;-62
2022/08/05 11:25:29;;;;;;;0.10;0.10;;;;;;;22.70;61.03;100293.25;5105216;28;20083;-62
2022/08/05 11:28:10;;;;;;;0.20;0.20;;;;;;;22.41;62.83;100298.53;5105174;28;20031;-62